»·PEaware :: WJA1511 KLAX-CYYC

WJA1511 :: KLAX-CYYC

FLIGHT INFORMATION

Flight Status: Arrived
Operator:
Westjet Airlines
More flights by this operator :: More flights under this callsign
Pilot: Andrew C. (28419)
Aircraft: BOEING 737-800
(B738)
More flights by this aircraft type
Origin: KLAX Los Angeles Intl
United States
Destination: CYYC Calgary Intl
Canada
More flights between these airports :: More routes between these airports
Route: LADYJ4 CSTRO FMG EVANT KS21K ANTAK IGVEP6
File this flight plan on PilotEdge
Remarks: RMK / SIMBRIEF
Altitude:
(Current/Filed)
36,000ft
Speed:
(Current/Filed)
454kts
Departed: 04-Oct-20 12:28 PM
Arrived: 04-Oct-20 03:07 PM
Distance/Time
Traveled:
1049nm/2:39
Distance/Time
To Go:
Arrived

Flight Plot

Page will automatically refresh every two minutes.

Flight plan parsing failed; only flown route is shown


Map Options




Map Legend


Flown Route
Filed Route
Departure Airport
Arrival Airport
Navaid (VOR, NDB)
Fix

Horizontal Profiles

Position Reports

Time Latitude Longitude Heading Altitude Ground
Speed
04-Oct-20 11:58 33.947279 -118.403918 187 116ft 0kts
04-Oct-20 11:59 33.947279 -118.403918 187 116ft 0kts
04-Oct-20 12:00 33.947279 -118.403918 187 116ft 0kts
04-Oct-20 12:01 33.947279 -118.403918 187 115ft 0kts
04-Oct-20 12:02 33.947279 -118.403918 188 115ft 0kts
04-Oct-20 12:03 33.947279 -118.403918 188 115ft 0kts
04-Oct-20 12:04 33.947279 -118.403918 188 115ft 0kts
04-Oct-20 12:05 33.947279 -118.403918 188 115ft 0kts
04-Oct-20 12:06 33.947279 -118.403918 188 115ft 0kts
04-Oct-20 12:07 33.947279 -118.403918 188 115ft 0kts
04-Oct-20 12:08 33.947279 -118.403918 188 115ft 0kts
04-Oct-20 12:09 33.947279 -118.403918 188 115ft 0kts
04-Oct-20 12:10 33.947279 -118.403918 188 115ft 0kts
04-Oct-20 12:11 33.947279 -118.403918 188 115ft 0kts
04-Oct-20 12:12 33.947279 -118.403918 188 115ft 0kts
04-Oct-20 12:13 33.947279 -118.403918 188 115ft 0kts
04-Oct-20 12:14 33.947279 -118.403918 188 115ft 0kts
04-Oct-20 12:15 33.947279 -118.403918 188 115ft 0kts
04-Oct-20 12:16 33.947279 -118.403918 188 115ft 0kts
04-Oct-20 12:17 33.947279 -118.403918 188 115ft 0kts
04-Oct-20 12:18 33.947279 -118.403918 188 115ft 0kts
04-Oct-20 12:19 33.947523 -118.403878 187 115ft 2kts
04-Oct-20 12:20 33.948023 -118.404008 98 115ft 2kts
04-Oct-20 12:21 33.948015 -118.404151 82 115ft 0kts
04-Oct-20 12:22 33.948015 -118.404151 82 115ft 0kts
04-Oct-20 12:23 33.948015 -118.404151 82 115ft 0kts
04-Oct-20 12:24 33.949031 -118.402300 65 115ft 9kts
04-Oct-20 12:25 33.949480 -118.399261 35 115ft 0kts
04-Oct-20 12:26 33.950398 -118.399400 279 115ft 4kts
04-Oct-20 12:27 33.947013 -118.432010 262 721ft 170kts
04-Oct-20 12:28 33.942293 -118.504465 267 2377ft 257kts
04-Oct-20 12:29 33.935877 -118.597792 271 5399ft 278kts
04-Oct-20 12:30 33.981492 -118.668067 342 7941ft 296kts
04-Oct-20 12:31 34.061264 -118.673674 4 8000ft 285kts
04-Oct-20 12:32 34.139786 -118.657369 11 7999ft 284kts
04-Oct-20 12:33 34.219158 -118.638519 9 9532ft 291kts
04-Oct-20 12:34 34.306577 -118.646513 349 11155ft 348kts
04-Oct-20 12:35 34.405272 -118.669289 349 13723ft 366kts
04-Oct-20 12:36 34.508171 -118.690215 350 16248ft 383kts
04-Oct-20 12:37 34.617322 -118.711417 350 18614ft 399kts
04-Oct-20 12:38 34.726294 -118.744715 338 20716ft 412kts
04-Oct-20 12:39 34.830407 -118.807873 328 22636ft 425kts
04-Oct-20 12:40 34.934959 -118.879396 328 24278ft 439kts
04-Oct-20 12:41 35.042090 -118.953114 328 26013ft 447kts
04-Oct-20 12:42 35.151639 -119.028764 328 27577ft 455kts
04-Oct-20 12:43 35.262434 -119.105521 328 29008ft 461kts
04-Oct-20 12:44 35.374626 -119.183262 329 30281ft 468kts
04-Oct-20 12:45 35.498562 -119.229242 352 31700ft 471kts
04-Oct-20 12:46 35.628071 -119.244862 354 33241ft 466kts
04-Oct-20 12:47 35.756382 -119.259754 353 34618ft 461kts
04-Oct-20 12:48 35.882870 -119.276077 352 35915ft 455kts
04-Oct-20 12:49 36.010091 -119.291111 354 36035ft 453kts
04-Oct-20 12:50 36.134986 -119.303193 354 36036ft 452kts
04-Oct-20 12:51 36.260970 -119.315493 354 36036ft 453kts
04-Oct-20 12:52 36.386407 -119.327936 354 36036ft 453kts
04-Oct-20 12:53 36.511942 -119.340470 354 36036ft 453kts
04-Oct-20 12:54 36.637689 -119.353080 354 36036ft 453kts
04-Oct-20 12:55 36.763263 -119.365716 354 36036ft 453kts
04-Oct-20 12:56 36.888454 -119.378360 354 36036ft 452kts
04-Oct-20 12:57 37.013651 -119.391046 354 36036ft 453kts
04-Oct-20 12:58 37.139335 -119.403825 354 36043ft 451kts
04-Oct-20 12:59 37.264600 -119.416592 354 36185ft 451kts
04-Oct-20 13:00 37.390087 -119.429436 354 36228ft 452kts
04-Oct-20 13:01 37.514938 -119.442246 354 36228ft 451kts
04-Oct-20 13:02 37.639549 -119.455088 354 36228ft 450kts
04-Oct-20 13:04 37.764319 -119.467978 354 36228ft 450kts
04-Oct-20 13:05 37.889228 -119.480928 354 36247ft 450kts
04-Oct-20 13:06 38.013889 -119.493906 354 36256ft 450kts
04-Oct-20 13:07 38.139107 -119.506976 354 36256ft 449kts
04-Oct-20 13:08 38.263745 -119.520039 354 36260ft 450kts
04-Oct-20 13:09 38.388425 -119.533143 354 36311ft 449kts
04-Oct-20 13:10 38.513097 -119.546293 354 36329ft 450kts
04-Oct-20 13:11 38.637271 -119.559438 354 36329ft 449kts
04-Oct-20 13:12 38.761787 -119.572662 354 36329ft 449kts
04-Oct-20 13:13 38.886288 -119.585940 354 36329ft 450kts
04-Oct-20 13:14 39.010638 -119.599235 354 36253ft 450kts
04-Oct-20 13:15 39.135257 -119.612616 354 36219ft 449kts
04-Oct-20 13:16 39.259473 -119.625998 354 36219ft 449kts
04-Oct-20 13:17 39.383886 -119.639448 354 36219ft 449kts
04-Oct-20 13:18 39.508327 -119.648460 2 36219ft 450kts
04-Oct-20 13:19 39.632576 -119.630503 7 36222ft 450kts
04-Oct-20 13:19 39.735526 -119.609702 8 36237ft 451kts
04-Oct-20 13:21 39.879537 -119.578411 8 36237ft 450kts
04-Oct-20 13:22 40.002540 -119.551038 8 36237ft 451kts
04-Oct-20 13:22 40.105278 -119.528004 8 36237ft 451kts
04-Oct-20 13:23 40.229123 -119.500104 8 36226ft 451kts
04-Oct-20 13:25 40.372786 -119.467593 8 36201ft 450kts
04-Oct-20 13:25 40.475425 -119.444279 8 36201ft 450kts
04-Oct-20 13:26 40.598765 -119.416171 8 36201ft 451kts
04-Oct-20 13:27 40.722022 -119.387968 8 36197ft 450kts
04-Oct-20 13:28 40.839698 -119.360948 8 36192ft 450kts
04-Oct-20 13:29 40.964120 -119.332271 8 36192ft 450kts
04-Oct-20 13:30 41.087150 -119.303803 8 36192ft 449kts
04-Oct-20 13:31 41.210165 -119.275233 8 36192ft 449kts
04-Oct-20 13:32 41.332918 -119.246619 8 36194ft 449kts
04-Oct-20 13:33 41.455952 -119.217822 8 36200ft 449kts
04-Oct-20 13:34 41.578329 -119.189072 8 36201ft 448kts
04-Oct-20 13:35 41.701127 -119.160112 8 36201ft 448kts
04-Oct-20 13:36 41.823226 -119.131204 8 36201ft 448kts
04-Oct-20 13:37 41.945864 -119.102065 7 36202ft 448kts
04-Oct-20 13:38 42.068274 -119.072851 7 36215ft 445kts
04-Oct-20 13:39 42.190235 -119.043635 7 36219ft 446kts
04-Oct-20 13:40 42.311826 -119.014400 7 36213ft 446kts
04-Oct-20 13:41 42.433702 -118.984976 7 36204ft 445kts
04-Oct-20 13:42 42.555244 -118.955525 7 36195ft 445kts
04-Oct-20 13:43 42.677111 -118.925871 7 36179ft 445kts
04-Oct-20 13:44 42.798435 -118.896231 7 36171ft 444kts
04-Oct-20 13:45 42.919746 -118.866477 7 36166ft 444kts
04-Oct-20 13:46 43.040796 -118.836669 7 36161ft 443kts
04-Oct-20 13:47 43.162046 -118.806696 7 36179ft 443kts
04-Oct-20 13:48 43.282828 -118.776716 7 36192ft 442kts
04-Oct-20 13:49 43.402586 -118.738516 16 36192ft 444kts
04-Oct-20 13:50 43.519174 -118.683166 16 36192ft 445kts
04-Oct-20 13:51 43.635683 -118.626449 17 36192ft 444kts
04-Oct-20 13:52 43.751969 -118.569339 17 36189ft 444kts
04-Oct-20 13:53 43.868003 -118.512045 17 36183ft 444kts
04-Oct-20 13:54 43.984286 -118.454377 16 36183ft 444kts
04-Oct-20 13:55 44.099993 -118.396736 16 36183ft 443kts
04-Oct-20 13:56 44.216223 -118.338601 17 36182ft 443kts
04-Oct-20 13:57 44.332236 -118.280337 17 36182ft 443kts
04-Oct-20 13:58 44.448248 -118.221821 17 36164ft 443kts
04-Oct-20 13:59 44.563751 -118.163312 17 36155ft 443kts
04-Oct-20 14:00 44.679415 -118.104483 17 36155ft 443kts
04-Oct-20 14:01 44.795035 -118.045421 17 36155ft 442kts
04-Oct-20 14:02 44.910427 -117.986219 17 36155ft 443kts
04-Oct-20 14:03 45.027022 -117.926158 17 36153ft 443kts
04-Oct-20 14:04 45.142751 -117.866256 17 36164ft 442kts
04-Oct-20 14:05 45.257981 -117.806374 16 36173ft 442kts
04-Oct-20 14:06 45.373182 -117.746239 16 36173ft 441kts
04-Oct-20 14:07 45.488261 -117.685906 16 36161ft 441kts
04-Oct-20 14:08 45.602963 -117.625512 16 36116ft 441kts
04-Oct-20 14:09 45.717818 -117.564773 16 36109ft 440kts
04-Oct-20 14:10 45.832722 -117.503751 16 36109ft 441kts
04-Oct-20 14:11 45.947164 -117.442695 16 36109ft 441kts
04-Oct-20 14:12 46.061851 -117.381251 16 36109ft 441kts
04-Oct-20 14:13 46.175125 -117.320291 17 36101ft 441kts
04-Oct-20 14:14 46.290312 -117.258022 17 36091ft 441kts
04-Oct-20 14:15 46.406042 -117.195189 17 36091ft 442kts
04-Oct-20 14:16 46.522501 -117.131661 17 36091ft 442kts
04-Oct-20 14:17 46.638945 -117.067859 17 36091ft 442kts
04-Oct-20 14:18 46.754934 -117.004003 17 36093ft 443kts
04-Oct-20 14:19 46.871162 -116.939731 16 36113ft 442kts
04-Oct-20 14:20 46.987468 -116.875104 16 36127ft 443kts
04-Oct-20 14:21 47.101893 -116.811237 16 36128ft 443kts
04-Oct-20 14:22 47.218668 -116.745749 16 36128ft 442kts
04-Oct-20 14:23 47.334866 -116.680278 16 36128ft 442kts
04-Oct-20 14:24 47.450963 -116.614556 16 36103ft 443kts
04-Oct-20 14:25 47.567010 -116.548541 16 36073ft 442kts
04-Oct-20 14:26 47.682687 -116.482427 16 36073ft 442kts
04-Oct-20 14:27 47.798958 -116.415667 16 36073ft 442kts
04-Oct-20 14:28 47.913866 -116.349380 17 36063ft 441kts
04-Oct-20 14:29 48.030703 -116.281645 17 36046ft 442kts
04-Oct-20 14:30 48.146043 -116.214466 17 36045ft 443kts
04-Oct-20 14:31 48.261677 -116.146779 17 36046ft 443kts
04-Oct-20 14:32 48.377054 -116.078923 17 36053ft 443kts
04-Oct-20 14:33 48.491617 -116.008291 8 36061ft 440kts
04-Oct-20 14:34 48.611501 -115.983041 2 36023ft 437kts
04-Oct-20 14:35 48.732526 -115.962057 1 36003ft 437kts
04-Oct-20 14:36 48.853854 -115.941664 1 36001ft 439kts
04-Oct-20 14:37 48.975514 -115.921307 0 36000ft 440kts
04-Oct-20 14:38 49.097743 -115.900801 0 35999ft 441kts
04-Oct-20 14:39 49.218194 -115.880510 0 35982ft 442kts
04-Oct-20 14:40 49.340367 -115.849094 15 35963ft 452kts
04-Oct-20 14:41 49.454196 -115.764688 21 35963ft 456kts
04-Oct-20 14:42 49.567043 -115.670655 23 35174ft 471kts
04-Oct-20 14:43 49.681599 -115.572410 23 32110ft 462kts
04-Oct-20 14:44 49.794704 -115.474294 24 30093ft 441kts
04-Oct-20 14:45 49.899140 -115.383093 24 28241ft 424kts
04-Oct-20 14:46 50.002360 -115.292489 25 26452ft 405kts
04-Oct-20 14:47 50.104891 -115.202114 25 24409ft 411kts
04-Oct-20 14:48 50.205857 -115.111457 25 22408ft 395kts
04-Oct-20 14:49 50.304500 -115.023109 25 20396ft 382kts
04-Oct-20 14:50 50.400082 -114.937379 25 18335ft 373kts
04-Oct-20 14:51 50.492158 -114.854362 25 16418ft 362kts
04-Oct-20 14:52 50.581208 -114.773786 25 14591ft 350kts
04-Oct-20 14:53 50.667443 -114.694923 25 13395ft 319kts
04-Oct-20 14:54 50.736521 -114.611720 41 12604ft 297kts
04-Oct-20 14:55 50.795387 -114.515182 42 11346ft 291kts
04-Oct-20 14:56 50.855226 -114.422756 41 10101ft 283kts
04-Oct-20 14:58 50.910215 -114.328652 66 9015ft 269kts
04-Oct-20 14:59 50.914260 -114.211899 98 9000ft 243kts
04-Oct-20 15:00 50.861455 -114.151680 142 8602ft 246kts
04-Oct-20 15:01 50.881291 -114.073486 22 7553ft 234kts
04-Oct-20 15:02 50.922590 -114.006763 38 6660ft 188kts
04-Oct-20 15:03 50.974081 -113.991002 359 6232ft 188kts
04-Oct-20 15:04 51.027167 -113.990715 359 5217ft 176kts
04-Oct-20 15:05 51.070667 -113.990364 2 4364ft 145kts
04-Oct-20 15:06 51.112755 -113.990372 0 3574ft 141kts
04-Oct-20 15:07 51.130623 -113.991512 327 3567ft 21kts
04-Oct-20 15:08 51.131510 -113.992536 291 3567ft 5kts
04-Oct-20 15:09 51.128450 -113.995647 209 3567ft 12kts
04-Oct-20 15:10 51.128358 -114.000728 265 3567ft 4kts
04-Oct-20 15:11 51.128497 -114.001077 101 3567ft 1kts
04-Oct-20 15:12 51.128971 -114.000352 358 3567ft 1kts
04-Oct-20 15:13 51.129073 -114.000358 357 3567ft 0kts

Navigation Log

Ident Type
Flight plan parsing failed, navigation log unavailable